createdAt,value
2017-09-06T00:02:10.692Z,16.00
2017-09-06T00:04:42.978Z,16.00
2017-09-06T00:07:15.526Z,16.00
2017-09-06T00:09:47.786Z,15.90
2017-09-06T00:12:21.408Z,15.90
2017-09-06T00:14:53.775Z,15.90
2017-09-06T00:17:27.984Z,15.90
2017-09-06T00:20:00.173Z,15.90
2017-09-06T00:22:32.882Z,15.80
2017-09-06T00:25:05.087Z,15.80
2017-09-06T00:27:37.798Z,15.80
2017-09-06T00:30:10.077Z,15.70
2017-09-06T00:32:42.833Z,15.60
2017-09-06T00:35:15.028Z,15.60
2017-09-06T00:37:48.251Z,15.60
2017-09-06T00:40:20.656Z,15.70
2017-09-06T00:42:53.351Z,15.60
2017-09-06T00:45:25.741Z,15.60
2017-09-06T00:47:58.219Z,15.60
2017-09-06T00:50:31.210Z,15.50
2017-09-06T00:53:03.772Z,15.40
2017-09-06T00:55:35.947Z,15.50
2017-09-06T00:58:08.598Z,15.40
2017-09-06T01:00:40.875Z,15.50
2017-09-06T01:03:13.663Z,15.50
2017-09-06T01:05:46.047Z,15.50
2017-09-06T01:08:18.704Z,15.50
2017-09-06T01:10:51.039Z,15.50
2017-09-06T01:13:24.755Z,15.50
2017-09-06T01:15:57.013Z,15.50
2017-09-06T01:18:30.570Z,15.50
2017-09-06T01:21:02.780Z,15.50
2017-09-06T01:23:35.358Z,15.50
2017-09-06T01:26:07.527Z,15.40
2017-09-06T01:28:40.267Z,15.40
2017-09-06T01:31:12.539Z,15.40
2017-09-06T01:33:45.293Z,15.40
2017-09-06T01:36:17.566Z,15.40
2017-09-06T01:38:50.036Z,15.30
2017-09-06T01:41:22.528Z,15.30
2017-09-06T01:43:55.620Z,15.30
2017-09-06T01:46:27.837Z,15.30
2017-09-06T01:49:00.678Z,15.30
2017-09-06T01:51:32.851Z,15.30
2017-09-06T01:54:05.529Z,15.20
2017-09-06T01:56:37.831Z,15.20
2017-09-06T01:59:10.399Z,15.20
2017-09-06T02:01:42.778Z,15.20
2017-09-06T02:04:15.757Z,15.20
2017-09-06T02:06:47.947Z,15.20
2017-09-06T02:09:20.664Z,15.20
2017-09-06T02:11:53.006Z,15.20
2017-09-06T02:14:25.823Z,15.30
2017-09-06T02:16:58.187Z,15.20
2017-09-06T02:19:30.879Z,15.20
2017-09-06T02:22:03.261Z,15.20
2017-09-06T02:24:35.818Z,15.20
2017-09-06T02:27:08.115Z,15.20
2017-09-06T02:29:40.680Z,15.20
2017-09-06T02:32:12.827Z,15.30
2017-09-06T02:34:45.265Z,15.30
2017-09-06T02:37:17.692Z,15.30
2017-09-06T02:39:50.171Z,15.20
2017-09-06T02:42:22.521Z,15.20
2017-09-06T02:44:55.256Z,15.20
2017-09-06T02:47:27.448Z,15.20
2017-09-06T02:50:00.090Z,15.20
2017-09-06T02:52:32.349Z,15.20
2017-09-06T02:55:05.016Z,15.20
2017-09-06T02:57:37.245Z,15.20
2017-09-06T03:00:09.890Z,15.20
2017-09-06T03:02:42.292Z,15.20
2017-09-06T03:07:53.024Z,15.30
2017-09-06T03:10:25.607Z,15.30
2017-09-06T03:12:57.834Z,15.40
2017-09-06T03:15:30.633Z,15.40
2017-09-06T03:18:02.903Z,15.30
2017-09-06T03:20:35.519Z,15.30
2017-09-06T03:23:07.825Z,15.30
2017-09-06T03:25:40.479Z,15.40
2017-09-06T03:28:12.799Z,15.40
2017-09-06T03:30:45.490Z,15.40
2017-09-06T03:33:17.844Z,15.40
2017-09-06T03:35:50.668Z,15.40
2017-09-06T03:38:22.953Z,15.40
2017-09-06T03:40:55.611Z,15.40
2017-09-06T03:43:28.169Z,15.40
2017-09-06T03:46:00.777Z,15.40
2017-09-06T03:48:33.113Z,15.40
2017-09-06T03:51:05.811Z,15.40
2017-09-06T03:53:38.106Z,15.40
2017-09-06T03:56:10.716Z,15.40
2017-09-06T03:58:43.142Z,15.40
2017-09-06T04:01:15.608Z,15.40
2017-09-06T04:03:47.878Z,15.50
2017-09-06T04:06:20.442Z,15.50
2017-09-06T04:08:52.820Z,15.50
2017-09-06T04:11:25.506Z,15.50
2017-09-06T04:13:57.882Z,15.50
2017-09-06T04:16:30.450Z,15.50
2017-09-06T04:19:02.684Z,15.60
2017-09-06T04:21:35.403Z,15.60
2017-09-06T04:24:07.726Z,15.60
2017-09-06T04:26:40.446Z,15.60
2017-09-06T04:29:12.859Z,15.60
2017-09-06T04:31:46.493Z,15.60
2017-09-06T04:34:18.737Z,15.60
2017-09-06T04:36:51.689Z,15.70
2017-09-06T04:39:24.148Z,15.70
2017-09-06T04:41:56.577Z,15.70
2017-09-06T04:44:28.745Z,15.60
2017-09-06T04:47:01.387Z,15.60
2017-09-06T04:49:33.651Z,15.70
2017-09-06T04:52:06.314Z,15.60
2017-09-06T04:54:38.541Z,15.70
2017-09-06T04:57:10.944Z,15.70
2017-09-06T04:59:43.148Z,15.70
2017-09-06T05:02:15.805Z,15.70
2017-09-06T05:04:48.135Z,15.70
2017-09-06T05:07:20.566Z,15.70
2017-09-06T05:09:52.933Z,15.70
2017-09-06T05:12:25.602Z,15.80
2017-09-06T05:14:58.036Z,15.80
2017-09-06T05:17:30.779Z,15.90
2017-09-06T05:20:02.990Z,15.90
2017-09-06T05:22:35.710Z,15.90
2017-09-06T05:25:08.227Z,15.80
2017-09-06T05:27:41.077Z,15.80
2017-09-06T05:30:13.310Z,15.90
2017-09-06T05:32:45.752Z,15.90
2017-09-06T05:35:18.194Z,15.90
2017-09-06T05:37:50.675Z,16.00
2017-09-06T05:40:23.024Z,16.10
2017-09-06T05:42:55.731Z,16.10
2017-09-06T05:45:28.190Z,16.10
2017-09-06T05:48:00.762Z,16.20
2017-09-06T05:50:33.063Z,16.10
2017-09-06T05:53:05.831Z,16.10
2017-09-06T05:55:38.111Z,16.20
2017-09-06T05:58:10.687Z,16.20
2017-09-06T06:00:43.071Z,16.40
2017-09-06T06:03:15.646Z,16.50
2017-09-06T06:05:48.060Z,16.60
2017-09-06T06:08:20.769Z,16.60
2017-09-06T06:10:53.153Z,16.70
2017-09-06T06:13:26.933Z,16.70
2017-09-06T06:15:59.138Z,16.80
2017-09-06T06:18:31.642Z,16.80
2017-09-06T06:21:03.906Z,16.70
2017-09-06T06:23:36.750Z,16.70
2017-09-06T06:26:08.909Z,16.70
2017-09-06T06:28:41.390Z,16.60
2017-09-06T06:31:13.789Z,16.70
2017-09-06T06:33:46.289Z,16.80
2017-09-06T06:36:18.465Z,16.80
2017-09-06T06:38:50.961Z,16.70
2017-09-06T06:41:23.235Z,16.80
2017-09-06T06:43:56.070Z,16.90
2017-09-06T06:46:28.291Z,17.00
2017-09-06T06:49:00.777Z,16.80
2017-09-06T06:51:33.106Z,16.90
2017-09-06T06:54:05.643Z,17.10
2017-09-06T06:56:38.041Z,17.20
2017-09-06T06:59:10.613Z,17.30
2017-09-06T07:01:43.705Z,17.50
2017-09-06T07:28:32.514Z,18.20
2017-09-06T07:42:28.228Z,18.20
2017-09-06T07:45:00.502Z,18.30
2017-09-06T07:50:19.713Z,18.80
2017-09-06T07:54:08.051Z,19.60
2017-09-06T07:56:34.180Z,19.70
2017-09-06T07:59:00.603Z,19.90
2017-09-06T08:01:27.142Z,19.10
2017-09-06T08:03:53.305Z,18.70
2017-09-06T08:06:19.506Z,18.10
2017-09-06T08:08:45.673Z,18.00
2017-09-06T08:11:12.027Z,17.90
2017-09-06T08:13:38.233Z,17.80
2017-09-06T08:16:04.400Z,17.70
2017-09-06T08:21:33.482Z,17.20
2017-09-06T08:23:59.753Z,17.00
2017-09-06T08:26:25.934Z,16.30
2017-09-06T08:28:52.225Z,16.00
2017-09-06T08:31:18.381Z,15.80
2017-09-06T08:33:44.588Z,15.90
2017-09-06T08:36:10.840Z,15.90
2017-09-06T08:38:38.062Z,16.00
2017-09-06T08:41:04.277Z,16.00
2017-09-06T08:43:30.473Z,16.10
2017-09-06T08:45:56.777Z,16.00
2017-09-06T08:48:22.984Z,15.90
2017-09-06T08:50:49.105Z,16.00
2017-09-06T08:53:15.372Z,16.10
2017-09-06T08:55:41.668Z,16.20
2017-09-06T08:58:07.858Z,16.40
2017-09-06T09:00:34.248Z,16.30
2017-09-06T09:03:00.521Z,16.40
2017-09-06T09:05:26.821Z,16.70
2017-09-06T09:07:52.980Z,16.60
2017-09-06T09:10:19.266Z,16.70
2017-09-06T09:12:46.201Z,16.80
2017-09-06T09:15:12.434Z,16.90
2017-09-06T09:17:38.638Z,16.90
2017-09-06T09:20:04.896Z,17.00
2017-09-06T09:22:31.122Z,16.80
2017-09-06T09:24:57.368Z,16.80
2017-09-06T09:27:23.531Z,16.80
2017-09-06T09:29:49.717Z,16.70
2017-09-06T09:32:15.994Z,16.60
2017-09-06T09:34:42.263Z,16.50
2017-09-06T09:37:08.476Z,16.50
2017-09-06T09:39:34.645Z,16.60
2017-09-06T09:42:00.803Z,16.60
2017-09-06T09:44:26.970Z,16.80
2017-09-06T09:46:53.172Z,17.00
2017-09-06T09:49:19.358Z,17.00
2017-09-06T09:51:45.630Z,17.10
2017-09-06T09:54:11.857Z,17.40
2017-09-06T09:56:38.058Z,17.60
2017-09-06T09:59:04.298Z,17.60
2017-09-06T10:01:30.608Z,17.50
2017-09-06T10:03:56.857Z,17.70
2017-09-06T10:06:23.160Z,17.90
2017-09-06T10:08:49.383Z,18.00
2017-09-06T10:11:15.594Z,18.10
2017-09-06T10:13:41.962Z,18.30
2017-09-06T10:16:08.204Z,18.30
2017-09-06T10:18:34.404Z,18.60
2017-09-06T10:21:00.621Z,18.60
2017-09-06T10:23:26.843Z,18.70
2017-09-06T10:25:53.107Z,18.70
2017-09-06T10:28:19.313Z,18.70
2017-09-06T10:30:45.535Z,18.90
2017-09-06T10:33:11.894Z,19.60
2017-09-06T10:35:38.452Z,20.40
2017-09-06T10:38:04.603Z,20.40
2017-09-06T10:40:30.796Z,20.50
2017-09-06T10:42:57.042Z,20.60
2017-09-06T10:45:23.318Z,20.60
2017-09-06T10:47:49.771Z,20.50
2017-09-06T10:50:16.057Z,20.50
2017-09-06T10:52:42.305Z,20.40
2017-09-06T10:55:08.605Z,20.10
2017-09-06T10:57:34.913Z,20.00
2017-09-06T11:00:01.176Z,20.00
2017-09-06T11:02:28.272Z,19.90
2017-09-06T11:04:54.450Z,19.80
2017-09-06T11:07:20.933Z,19.80
2017-09-06T11:09:47.095Z,19.90
2017-09-06T11:12:13.356Z,20.00
2017-09-06T11:14:39.501Z,20.00
2017-09-06T11:17:05.737Z,20.00
2017-09-06T11:19:31.853Z,20.00
2017-09-06T11:21:58.103Z,20.00
2017-09-06T11:24:24.248Z,20.20
2017-09-06T11:26:50.393Z,20.30
2017-09-06T11:29:16.632Z,20.40
2017-09-06T11:31:42.916Z,20.40
2017-09-06T11:34:09.099Z,20.50
2017-09-06T11:36:35.336Z,20.80
2017-09-06T11:39:01.568Z,20.90
2017-09-06T11:41:27.883Z,20.90
2017-09-06T11:43:54.140Z,20.90
2017-09-06T11:46:20.331Z,21.00
2017-09-06T11:48:46.559Z,21.20
2017-09-06T11:51:12.756Z,21.40
2017-09-06T11:53:39.041Z,21.70
2017-09-06T11:56:05.274Z,21.70
2017-09-06T11:58:31.438Z,21.60
2017-09-06T12:00:57.694Z,21.70
2017-09-06T12:03:23.876Z,21.70
2017-09-06T12:05:50.026Z,21.70
2017-09-06T12:08:16.284Z,22.00
2017-09-06T12:10:42.562Z,22.20
2017-09-06T12:13:08.810Z,22.50
2017-09-06T12:15:35.135Z,22.50
2017-09-06T12:18:01.553Z,22.40
2017-09-06T12:20:27.837Z,22.40
2017-09-06T12:22:54.220Z,22.60
2017-09-06T12:25:20.362Z,23.10
2017-09-06T12:27:46.534Z,23.00
2017-09-06T12:30:18.777Z,23.40
2017-09-06T12:32:44.939Z,23.50
2017-09-06T12:35:11.150Z,24.00
2017-09-06T12:37:37.386Z,24.50
2017-09-06T12:40:03.554Z,25.00
2017-09-06T12:42:35.708Z,24.40
2017-09-06T12:45:02.017Z,24.60
2017-09-06T12:47:28.382Z,25.30
2017-09-06T12:49:54.713Z,25.10
2017-09-06T12:52:20.877Z,25.20
2017-09-06T12:54:47.046Z,25.50
2017-09-06T12:57:13.291Z,25.90
2017-09-06T12:59:39.592Z,27.00
2017-09-06T13:02:05.862Z,26.90
2017-09-06T13:04:32.048Z,27.10
2017-09-06T13:06:58.285Z,26.90
2017-09-06T13:09:24.428Z,27.40
2017-09-06T13:11:50.691Z,27.10
2017-09-06T13:14:16.875Z,26.60
2017-09-06T13:16:43.154Z,26.50
2017-09-06T13:19:09.360Z,27.20
2017-09-06T13:21:35.576Z,26.70
2017-09-06T13:24:01.791Z,26.30
2017-09-06T13:26:28.008Z,25.80
2017-09-06T13:28:54.143Z,26.10
2017-09-06T13:31:20.342Z,25.90
2017-09-06T13:33:47.170Z,25.20
2017-09-06T13:36:13.366Z,24.60
2017-09-06T13:38:39.666Z,24.40
2017-09-06T13:41:05.867Z,24.10
2017-09-06T13:43:32.081Z,24.20
2017-09-06T13:45:58.256Z,24.10
2017-09-06T13:48:24.479Z,24.00
2017-09-06T13:50:51.414Z,23.20
2017-09-06T13:53:17.722Z,23.20
2017-09-06T13:55:43.896Z,23.00
2017-09-06T13:58:10.202Z,22.70
2017-09-06T14:00:36.542Z,22.40
2017-09-06T14:03:02.861Z,21.80
2017-09-06T14:05:29.127Z,19.40
2017-09-06T14:07:55.301Z,18.00
2017-09-06T14:10:21.572Z,17.10
2017-09-06T14:12:47.774Z,16.70
2017-09-06T14:15:13.999Z,16.70
2017-09-06T14:17:40.298Z,16.70
2017-09-06T14:20:06.523Z,16.70
2017-09-06T14:22:32.685Z,16.70
2017-09-06T14:24:58.876Z,16.70
2017-09-06T14:27:25.211Z,16.80
2017-09-06T14:29:51.371Z,16.90
2017-09-06T14:32:17.699Z,16.90
2017-09-06T14:34:43.993Z,17.00
2017-09-06T14:37:10.205Z,17.00
2017-09-06T14:39:36.390Z,17.00
2017-09-06T14:42:02.702Z,17.00
2017-09-06T14:44:28.942Z,17.00
2017-09-06T14:46:55.184Z,17.10
2017-09-06T14:49:21.376Z,17.20
2017-09-06T14:51:47.548Z,17.40
2017-09-06T14:54:13.889Z,17.80
2017-09-06T14:56:41.017Z,18.00
2017-09-06T14:59:07.224Z,18.00
2017-09-06T15:01:33.456Z,18.10
2017-09-06T15:03:59.696Z,18.10
2017-09-06T15:06:25.908Z,18.10
2017-09-06T15:08:52.167Z,18.00
2017-09-06T15:11:18.473Z,18.00
2017-09-06T15:13:44.671Z,17.90
2017-09-06T15:16:10.887Z,17.90
2017-09-06T15:18:37.127Z,17.80
2017-09-06T15:21:03.327Z,17.80
2017-09-06T15:23:29.622Z,17.90
2017-09-06T15:25:55.833Z,17.90
2017-09-06T15:28:22.083Z,17.90
2017-09-06T15:30:48.372Z,17.90
2017-09-06T15:33:14.510Z,17.90
2017-09-06T15:35:40.661Z,17.90
2017-09-06T15:38:06.897Z,17.80
2017-09-06T15:40:33.080Z,17.80
2017-09-06T15:42:59.390Z,17.80
2017-09-06T15:45:25.657Z,17.80
2017-09-06T15:47:52.060Z,17.70
2017-09-06T15:50:18.292Z,17.70
2017-09-06T15:52:44.524Z,17.80
2017-09-06T15:55:10.746Z,17.80
2017-09-06T15:57:37.103Z,17.80
2017-09-06T16:00:03.546Z,17.80
2017-09-06T16:02:29.827Z,17.80
2017-09-06T16:04:56.222Z,17.70
2017-09-06T16:07:22.541Z,17.70
2017-09-06T16:09:49.514Z,17.70
2017-09-06T16:12:16.155Z,17.70
2017-09-06T16:14:42.369Z,17.70
2017-09-06T16:17:08.706Z,17.60
2017-09-06T16:19:34.977Z,17.60
2017-09-06T16:22:01.278Z,17.60
2017-09-06T16:24:27.474Z,17.50
2017-09-06T16:26:54.741Z,17.50
2017-09-06T16:29:21.046Z,17.50
2017-09-06T16:31:47.300Z,17.40
2017-09-06T16:34:13.787Z,17.40
2017-09-06T16:36:39.987Z,17.50
2017-09-06T16:39:06.196Z,17.50
2017-09-06T16:41:32.361Z,17.60
2017-09-06T16:43:59.064Z,17.70
2017-09-06T16:46:25.278Z,17.70
2017-09-06T16:48:51.512Z,17.70
2017-09-06T16:51:17.736Z,17.60
2017-09-06T16:53:43.996Z,17.60
2017-09-06T16:56:10.330Z,17.70
2017-09-06T16:58:36.630Z,17.60
2017-09-06T17:01:02.978Z,17.60
2017-09-06T17:03:29.244Z,17.70
2017-09-06T17:05:55.501Z,17.70
2017-09-06T17:08:21.760Z,17.70
2017-09-06T17:10:48.114Z,17.60
2017-09-06T17:13:14.448Z,17.60
2017-09-06T17:15:40.809Z,17.50
2017-09-06T17:18:07.301Z,17.40
2017-09-06T17:20:33.594Z,17.40
2017-09-06T17:22:59.796Z,17.30
2017-09-06T17:25:26.028Z,17.20
2017-09-06T17:27:52.305Z,17.30
2017-09-06T17:30:18.548Z,17.20
2017-09-06T17:32:50.923Z,17.20
2017-09-06T17:35:17.216Z,17.10
2017-09-06T17:37:43.576Z,17.00
2017-09-06T17:40:09.952Z,16.90
2017-09-06T17:42:36.241Z,16.70
2017-09-06T17:45:02.495Z,16.70
2017-09-06T17:47:28.702Z,16.60
2017-09-06T17:49:54.914Z,16.50
2017-09-06T17:52:21.146Z,16.50
2017-09-06T17:54:47.501Z,16.60
2017-09-06T17:57:13.712Z,16.60
2017-09-06T17:59:40.097Z,16.50
2017-09-06T18:02:06.438Z,16.50
2017-09-06T18:04:32.605Z,16.40
2017-09-06T18:06:58.987Z,16.50
2017-09-06T18:09:25.654Z,16.50
2017-09-06T18:11:51.883Z,16.50
2017-09-06T18:14:18.228Z,16.50
2017-09-06T18:16:44.456Z,16.50
2017-09-06T18:19:10.766Z,16.50
2017-09-06T18:21:37.123Z,16.40
2017-09-06T18:24:03.337Z,16.40
2017-09-06T18:26:29.553Z,16.30
2017-09-06T18:28:55.832Z,16.20
2017-09-06T18:31:22.156Z,16.10
2017-09-06T18:33:48.415Z,16.10
2017-09-06T18:36:14.705Z,16.00
2017-09-06T18:38:40.928Z,16.00
2017-09-06T18:41:07.034Z,16.00
2017-09-06T18:43:33.282Z,16.10
2017-09-06T18:45:59.465Z,16.00
2017-09-06T18:48:25.721Z,16.00
2017-09-06T18:50:52.008Z,16.00
2017-09-06T18:53:18.267Z,16.00
2017-09-06T18:55:44.397Z,15.90
2017-09-06T18:58:10.519Z,15.80
2017-09-06T19:00:36.718Z,15.80
2017-09-06T19:03:02.926Z,15.70
2017-09-06T19:05:29.249Z,15.80
2017-09-06T19:07:55.463Z,15.70
2017-09-06T19:10:21.693Z,15.70
2017-09-06T19:12:47.893Z,15.70
2017-09-06T19:15:14.092Z,15.70
2017-09-06T19:17:40.283Z,15.60
2017-09-06T19:20:06.633Z,15.60
2017-09-06T19:22:32.886Z,15.60
2017-09-06T19:24:59.096Z,15.60
2017-09-06T19:27:25.230Z,15.60
2017-09-06T19:29:51.484Z,15.50
2017-09-06T19:32:17.871Z,15.40
2017-09-06T19:34:44.246Z,15.50
2017-09-06T19:37:10.449Z,15.40
2017-09-06T19:39:36.736Z,15.30
2017-09-06T19:42:02.974Z,15.30
2017-09-06T19:44:29.131Z,15.20
2017-09-06T19:46:55.758Z,15.10
2017-09-06T19:49:22.403Z,15.20
2017-09-06T19:51:48.585Z,15.10
2017-09-06T19:54:14.794Z,15.00
2017-09-06T19:56:40.888Z,15.10
2017-09-06T19:59:07.389Z,15.40
2017-09-06T20:01:33.500Z,15.60
2017-09-06T20:03:59.730Z,15.50
2017-09-06T20:06:25.928Z,15.40
2017-09-06T20:08:52.028Z,15.20
2017-09-06T20:11:18.252Z,15.20
2017-09-06T20:13:44.471Z,15.10
2017-09-06T20:16:10.694Z,15.10
2017-09-06T20:18:36.908Z,15.20
2017-09-06T20:21:03.186Z,15.10
2017-09-06T20:23:29.493Z,15.10
2017-09-06T20:25:55.627Z,15.10
2017-09-06T20:28:21.782Z,15.10
2017-09-06T20:30:47.981Z,15.10
2017-09-06T20:33:14.218Z,15.20
2017-09-06T20:35:40.505Z,15.20
2017-09-06T20:38:06.843Z,15.20
2017-09-06T20:40:32.957Z,15.20
2017-09-06T20:42:59.256Z,15.20
2017-09-06T20:45:25.463Z,15.20
2017-09-06T20:47:51.816Z,15.10
2017-09-06T20:50:17.953Z,15.10
2017-09-06T20:52:44.355Z,15.10
2017-09-06T20:55:10.494Z,15.10
2017-09-06T20:57:36.665Z,15.10
2017-09-06T21:00:02.928Z,15.20
2017-09-06T21:02:29.135Z,15.20
2017-09-06T21:04:55.320Z,15.20
2017-09-06T21:07:21.515Z,15.20
2017-09-06T21:09:47.634Z,15.20
2017-09-06T21:12:13.802Z,15.20
2017-09-06T21:14:39.991Z,15.20
2017-09-06T21:17:06.390Z,15.20
2017-09-06T21:19:32.542Z,15.10
2017-09-06T21:21:58.666Z,15.20
2017-09-06T21:24:24.976Z,15.10
2017-09-06T21:26:51.125Z,15.10
2017-09-06T21:29:17.254Z,15.20
2017-09-06T21:31:43.439Z,15.20
2017-09-06T21:34:09.766Z,15.20
2017-09-06T21:36:35.980Z,15.20
2017-09-06T21:39:02.128Z,15.20
2017-09-06T21:41:28.306Z,15.20
2017-09-06T21:43:54.452Z,15.20
2017-09-06T21:46:20.734Z,15.30
2017-09-06T21:48:46.935Z,15.30
2017-09-06T21:51:13.265Z,15.20
2017-09-06T21:53:39.478Z,15.10
2017-09-06T21:56:05.718Z,15.20
2017-09-06T21:58:31.928Z,15.10
2017-09-06T22:00:58.163Z,15.10
2017-09-06T22:03:24.829Z,15.00
2017-09-06T22:05:51.159Z,15.00
2017-09-06T22:08:17.471Z,15.00
2017-09-06T22:10:43.848Z,14.90
2017-09-06T22:13:10.225Z,14.90
2017-09-06T22:15:36.497Z,14.80
2017-09-06T22:18:02.810Z,14.80
2017-09-06T22:20:29.061Z,14.80
2017-09-06T22:22:55.472Z,14.90
2017-09-06T22:25:21.865Z,14.70
2017-09-06T22:27:48.098Z,14.70
2017-09-06T22:30:14.351Z,14.70
2017-09-06T22:32:40.569Z,14.80
2017-09-06T22:35:06.967Z,15.00
2017-09-06T22:37:33.259Z,14.90
2017-09-06T22:39:59.407Z,14.80
2017-09-06T22:42:25.976Z,14.80
2017-09-06T22:44:52.173Z,14.70
2017-09-06T22:47:18.491Z,14.60
2017-09-06T22:49:44.668Z,14.50
2017-09-06T22:52:10.858Z,14.60
2017-09-06T22:54:37.045Z,14.60
2017-09-06T22:57:03.198Z,14.60
2017-09-06T22:59:29.312Z,14.50
2017-09-06T23:01:56.368Z,14.50
2017-09-06T23:04:22.616Z,14.50
2017-09-06T23:06:48.756Z,14.50
2017-09-06T23:09:15.000Z,14.50
2017-09-06T23:11:41.273Z,14.40
2017-09-06T23:14:07.474Z,14.40
2017-09-06T23:16:33.610Z,14.30
2017-09-06T23:18:59.769Z,14.40
2017-09-06T23:21:25.962Z,14.30
2017-09-06T23:23:52.125Z,14.30
2017-09-06T23:26:18.236Z,14.50
2017-09-06T23:28:44.572Z,14.30
2017-09-06T23:31:10.744Z,14.20
2017-09-06T23:33:36.888Z,14.30
2017-09-06T23:36:03.087Z,14.30
2017-09-06T23:38:29.269Z,14.30
2017-09-06T23:40:55.387Z,14.20
2017-09-06T23:43:21.513Z,14.20
2017-09-06T23:45:47.698Z,14.20
2017-09-06T23:48:13.907Z,14.30
2017-09-06T23:50:40.044Z,14.10
2017-09-06T23:53:06.246Z,14.10
2017-09-06T23:55:32.348Z,14.10
2017-09-06T23:57:58.531Z,14.10
